Time;durP1;ratioP1;P1;durP2;ratioP2;P2;SDS_P1;SDS_P2;PMS_P1;PMS_P2;Temp;Humidity;BMP_temperature;BMP_pressure;BME280_temperature;BME280_humidity;BME280_pressure;Samples;Min_cycle;Max_cycle;Signal;HPM_P1;HPM_P2
2021/07/06 00:00:09;;;;;;;3.33;3.03;;;21.40;63.30;;;;;;5055487;28;20199;-66
2021/07/06 00:02:35;;;;;;;3.15;2.90;;;21.40;63.30;;;;;;5055224;28;20194;-67
2021/07/06 00:05:00;;;;;;;3.08;2.78;;;21.40;63.40;;;;;;5055049;28;20175;-67
2021/07/06 00:07:26;;;;;;;3.10;2.90;;;21.40;63.40;;;;;;5055687;28;20175;-66
2021/07/06 00:09:51;;;;;;;2.92;2.72;;;21.40;63.40;;;;;;5055410;28;20229;-66
2021/07/06 00:12:17;;;;;;;2.75;2.53;;;21.40;63.50;;;;;;5054675;28;20229;-66
2021/07/06 00:14:43;;;;;;;2.97;2.60;;;21.40;63.50;;;;;;5055261;28;20190;-66
2021/07/06 00:17:12;;;;;;;3.40;2.78;;;21.40;63.50;;;;;;5055271;28;20555;-67
2021/07/06 00:19:37;;;;;;;3.67;3.38;;;21.40;63.50;;;;;;5053991;28;20227;-67
2021/07/06 00:22:03;;;;;;;2.85;2.65;;;21.40;63.50;;;;;;5055300;28;20186;-67
2021/07/06 00:24:29;;;;;;;3.15;2.85;;;21.40;63.50;;;;;;5055243;28;20175;-66
2021/07/06 00:26:54;;;;;;;3.05;2.78;;;21.40;63.60;;;;;;5054389;28;20194;-66
2021/07/06 00:29:20;;;;;;;3.17;2.97;;;21.40;63.60;;;;;;5055084;28;20621;-66
2021/07/06 00:31:45;;;;;;;3.30;3.00;;;21.40;63.60;;;;;;5054559;28;20205;-66
2021/07/06 00:34:11;;;;;;;3.60;2.80;;;21.40;63.70;;;;;;5054546;28;20202;-66
2021/07/06 00:36:37;;;;;;;3.45;3.08;;;21.30;63.70;;;;;;5054943;28;20254;-67
2021/07/06 00:39:03;;;;;;;3.40;3.10;;;21.30;63.70;;;;;;5055071;28;20183;-66
2021/07/06 00:41:29;;;;;;;3.80;2.90;;;21.40;63.80;;;;;;5054386;28;20199;-67
2021/07/06 00:43:54;;;;;;;3.35;3.15;;;21.30;63.80;;;;;;5054755;28;20177;-67
2021/07/06 00:46:20;;;;;;;2.50;2.30;;;21.30;63.80;;;;;;5054659;28;20218;-67
2021/07/06 00:48:45;;;;;;;3.42;3.13;;;21.30;63.90;;;;;;5053856;28;20564;-67
2021/07/06 00:51:11;;;;;;;3.45;3.15;;;21.30;63.90;;;;;;5054864;28;20644;-66
2021/07/06 00:53:37;;;;;;;3.17;2.67;;;21.40;64.10;;;;;;5053983;28;20544;-66
2021/07/06 00:56:02;;;;;;;3.78;3.17;;;21.30;64.00;;;;;;5054606;28;20168;-66
2021/07/06 00:58:28;;;;;;;2.72;2.53;;;21.30;64.00;;;;;;5053125;28;20569;-66
2021/07/06 01:00:54;;;;;;;5.45;2.90;;;21.30;64.00;;;;;;5053393;28;20218;-66
2021/07/06 01:03:20;;;;;;;2.97;2.78;;;21.30;64.00;;;;;;5054876;28;20274;-67
2021/07/06 01:05:45;;;;;;;2.75;2.55;;;21.30;64.10;;;;;;5053820;28;20254;-67
2021/07/06 01:08:11;;;;;;;3.03;2.83;;;21.30;64.10;;;;;;5053670;28;20617;-66
2021/07/06 01:10:36;;;;;;;2.63;2.42;;;21.30;64.10;;;;;;5054027;28;20175;-66
2021/07/06 01:13:03;;;;;;;3.05;2.75;;;21.30;64.10;;;;;;5054257;28;20171;-66
2021/07/06 01:15:29;;;;;;;2.60;2.40;;;21.30;64.10;;;;;;5053381;28;20183;-67
2021/07/06 01:18:06;;;;;;;2.72;2.53;;;21.30;64.10;;;;;;5054087;28;20175;-67
2021/07/06 01:20:32;;;;;;;2.55;2.35;;;21.30;64.10;;;;;;5053759;28;20697;-67
2021/07/06 01:22:58;;;;;;;2.30;2.13;;;21.30;64.20;;;;;;5053382;28;20183;-67
2021/07/06 01:25:24;;;;;;;2.97;2.60;;;21.30;64.20;;;;;;5054186;28;20178;-66
2021/07/06 01:27:49;;;;;;;3.05;2.75;;;21.30;64.20;;;;;;5053752;28;20755;-66
2021/07/06 01:30:18;;;;;;;2.67;2.47;;;21.30;64.10;;;;;;5053397;28;20636;-65
2021/07/06 01:32:45;;;;;;;2.58;2.38;;;21.30;64.10;;;;;;5053833;28;20182;-66
2021/07/06 01:35:12;;;;;;;2.60;2.40;;;21.30;64.20;;;;;;5054068;28;20175;-67
2021/07/06 01:37:53;;;;;;;2.78;2.58;;;21.30;64.20;;;;;;5052925;28;20179;-67
2021/07/06 01:40:19;;;;;;;2.55;2.35;;;21.30;64.20;;;;;;5053697;28;20258;-66
2021/07/06 01:42:45;;;;;;;2.35;2.15;;;21.30;64.30;;;;;;5053273;28;20171;-67
2021/07/06 01:45:12;;;;;;;2.03;1.85;;;21.30;64.30;;;;;;5053960;28;20175;-66
2021/07/06 01:47:38;;;;;;;2.38;2.17;;;21.30;64.30;;;;;;5053478;28;20167;-67
2021/07/06 01:50:05;;;;;;;2.78;2.47;;;21.30;64.30;;;;;;5053118;28;20178;-66
2021/07/06 01:52:31;;;;;;;2.50;2.30;;;21.30;64.40;;;;;;5053105;28;20262;-66
2021/07/06 01:54:56;;;;;;;2.58;2.20;;;21.30;64.50;;;;;;5053402;28;20292;-66
2021/07/06 01:57:24;;;;;;;2.25;2.05;;;21.30;64.50;;;;;;5052910;28;20206;-66
2021/07/06 01:59:51;;;;;;;2.70;2.22;;;21.30;64.60;;;;;;5053176;28;20261;-67
2021/07/06 02:02:16;;;;;;;2.63;2.42;;;21.30;64.50;;;;;;5053521;28;20179;-67
2021/07/06 02:04:42;;;;;;;2.38;2.17;;;21.20;64.50;;;;;;5052297;28;20175;-67
2021/07/06 02:07:07;;;;;;;2.10;2.00;;;21.30;64.60;;;;;;5053286;28;20179;-67
2021/07/06 02:09:33;;;;;;;2.00;1.90;;;21.30;64.70;;;;;;5052782;28;20691;-66
2021/07/06 02:11:58;;;;;;;2.05;1.95;;;21.30;64.60;;;;;;5052473;28;20199;-66
2021/07/06 02:14:24;;;;;;;2.78;2.58;;;21.20;65.40;;;;;;5053343;28;20163;-66
2021/07/06 02:16:49;;;;;;;2.28;2.03;;;21.30;65.40;;;;;;5052793;28;20197;-67
2021/07/06 02:19:15;;;;;;;2.20;2.05;;;21.20;64.50;;;;;;5051991;28;20237;-68
2021/07/06 02:21:44;;;;;;;2.88;2.15;;;21.20;64.60;;;;;;5052762;28;20175;-67
2021/07/06 02:24:09;;;;;;;3.20;2.40;;;21.30;64.60;;;;;;5053207;28;20217;-66
2021/07/06 02:26:35;;;;;;;2.35;2.20;;;21.20;64.60;;;;;;5052138;28;20210;-66
2021/07/06 02:29:00;;;;;;;2.20;2.10;;;21.20;64.50;;;;;;5053176;28;20178;-66
2021/07/06 02:31:26;;;;;;;2.35;2.00;;;21.20;64.40;;;;;;5052954;28;20167;-66
2021/07/06 02:33:51;;;;;;;2.10;2.00;;;21.20;64.40;;;;;;5052081;28;20182;-66
2021/07/06 02:36:17;;;;;;;2.10;2.00;;;21.30;64.40;;;;;;5053119;28;20171;-67
2021/07/06 02:38:42;;;;;;;2.22;2.10;;;21.20;64.40;;;;;;5052511;28;20187;-66
2021/07/06 02:41:08;;;;;;;2.10;1.75;;;21.20;64.40;;;;;;5052086;28;20195;-67
2021/07/06 02:43:33;;;;;;;2.30;2.10;;;21.20;64.60;;;;;;5052679;28;20185;-67
2021/07/06 02:45:59;;;;;;;2.20;2.10;;;21.20;64.60;;;;;;5052778;28;20179;-67
2021/07/06 02:48:25;;;;;;;2.65;2.45;;;21.20;64.50;;;;;;5052157;28;20175;-65
2021/07/06 02:50:50;;;;;;;2.28;2.17;;;21.20;64.50;;;;;;5052542;28;20722;-66
2021/07/06 02:53:16;;;;;;;2.50;2.17;;;21.20;64.40;;;;;;5051673;28;20630;-65
2021/07/06 02:55:41;;;;;;;2.20;2.00;;;21.20;64.40;;;;;;5052583;28;20277;-65
2021/07/06 02:58:07;;;;;;;1.92;1.83;;;21.20;64.40;;;;;;5052513;28;20263;-65
2021/07/06 03:00:33;;;;;;;2.30;2.17;;;21.20;64.50;;;;;;5051667;28;20246;-66
2021/07/06 03:03:00;;;;;;;1.90;1.80;;;21.20;64.40;;;;;;5052778;28;20260;-66
2021/07/06 03:05:28;;;;;;;1.77;1.67;;;21.20;64.50;;;;;;5052483;28;20186;-66
2021/07/06 03:07:53;;;;;;;2.35;2.25;;;21.20;64.50;;;;;;5051542;28;20171;-66
2021/07/06 03:10:21;;;;;;;2.20;2.10;;;21.20;64.60;;;;;;5051247;28;20729;-65
2021/07/06 03:12:47;;;;;;;1.98;1.70;;;21.20;64.50;;;;;;5052292;28;20198;-65
2021/07/06 03:15:14;;;;;;;2.30;2.10;;;21.20;64.50;;;;;;5051940;28;20203;-67
2021/07/06 03:17:40;;;;;;;2.83;1.85;;;21.20;64.50;;;;;;5052199;28;20179;-66
2021/07/06 03:20:06;;;;;;;1.80;1.70;;;21.20;64.70;;;;;;5052246;28;20241;-66
2021/07/06 03:22:38;;;;;;;1.83;1.67;;;21.20;64.80;;;;;;5051253;28;20172;-66
2021/07/06 03:25:05;;;;;;;2.80;1.80;;;21.20;65.10;;;;;;5052513;28;20199;-66
2021/07/06 03:27:31;;;;;;;2.38;2.00;;;21.20;64.70;;;;;;5052165;28;20211;-65
2021/07/06 03:29:56;;;;;;;1.80;1.70;;;21.20;64.80;;;;;;5054130;28;20230;-65
2021/07/06 03:32:22;;;;;;;2.53;2.33;;;21.20;64.90;;;;;;5056214;28;20176;-65
2021/07/06 03:34:47;;;;;;;1.88;1.77;;;21.20;64.90;;;;;;5055951;28;20175;-65
2021/07/06 03:37:13;;;;;;;2.15;1.65;;;21.20;65.00;;;;;;5055260;28;20179;-66
2021/07/06 03:39:39;;;;;;;1.70;1.60;;;21.10;65.00;;;;;;5055889;28;20262;-66
2021/07/06 03:42:05;;;;;;;1.70;1.60;;;21.20;64.90;;;;;;5056177;28;20266;-66
2021/07/06 03:44:30;;;;;;;1.55;1.45;;;21.20;65.10;;;;;;5054991;28;20183;-66
2021/07/06 03:46:56;;;;;;;1.67;1.58;;;21.20;64.90;;;;;;5055840;28;20179;-66
2021/07/06 03:49:21;;;;;;;2.30;1.88;;;21.20;65.00;;;;;;5055377;28;20178;-66
2021/07/06 03:51:47;;;;;;;3.60;1.60;;;21.20;64.90;;;;;;5055228;28;20174;-65
2021/07/06 03:54:12;;;;;;;2.17;1.80;;;21.20;65.40;;;;;;5055726;28;20167;-65
2021/07/06 03:56:38;;;;;;;1.80;1.70;;;21.20;64.90;;;;;;5054976;28;20202;-65
2021/07/06 03:59:03;;;;;;;1.55;1.45;;;21.20;65.00;;;;;;5055902;28;20548;-65
2021/07/06 04:01:29;;;;;;;1.50;1.40;;;21.20;65.10;;;;;;5055564;28;20627;-66
2021/07/06 04:03:54;;;;;;;1.92;1.75;;;21.20;65.20;;;;;;5055020;28;20171;-65
2021/07/06 04:06:20;;;;;;;1.83;1.73;;;21.20;64.90;;;;;;5055368;28;20175;-65
2021/07/06 04:08:45;;;;;;;2.67;1.50;;;21.20;65.00;;;;;;5055178;28;20609;-65
2021/07/06 04:11:11;;;;;;;1.75;1.65;;;21.20;64.90;;;;;;5054816;28;20175;-65
2021/07/06 04:13:36;;;;;;;1.58;1.45;;;21.20;64.80;;;;;;5055503;28;20179;-65
2021/07/06 04:16:02;;;;;;;1.63;1.52;;;21.20;65.00;;;;;;5055601;28;20213;-65
2021/07/06 04:18:28;;;;;;;2.05;1.40;;;21.20;64.90;;;;;;5054593;28;20171;-65
2021/07/06 04:20:57;;;;;;;2.05;1.30;;;21.20;64.90;;;;;;5054974;28;20261;-66
2021/07/06 04:23:25;;;;;;;2.50;1.60;;;21.20;65.40;;;;;;5055426;28;20175;-65
2021/07/06 04:25:50;;;;;;;1.58;1.48;;;21.20;65.70;;;;;;5054357;28;20175;-65
2021/07/06 04:28:16;;;;;;;1.85;1.38;;;21.20;65.30;;;;;;5055287;28;20167;-65
2021/07/06 04:30:41;;;;;;;1.67;1.58;;;21.20;65.70;;;;;;5054821;28;20183;-65
2021/07/06 04:33:07;;;;;;;2.85;1.40;;;21.20;65.40;;;;;;5054440;28;20172;-65
2021/07/06 04:35:32;;;;;;;2.05;1.42;;;21.20;65.70;;;;;;5054777;28;20179;-65
2021/07/06 04:37:58;;;;;;;1.50;1.35;;;21.20;65.80;;;;;;5054878;28;20640;-66
2021/07/06 04:40:24;;;;;;;1.33;1.23;;;21.20;65.70;;;;;;5053429;28;20230;-65
2021/07/06 04:42:52;;;;;;;1.58;1.48;;;21.20;65.40;;;;;;5054640;28;20180;-66
2021/07/06 04:45:17;;;;;;;1.83;1.50;;;21.20;65.80;;;;;;5054893;28;20175;-66
2021/07/06 04:47:44;;;;;;;1.40;1.30;;;21.20;65.70;;;;;;5053794;28;20529;-65
2021/07/06 04:50:11;;;;;;;1.55;1.33;;;21.20;66.80;;;;;;5054511;28;20179;-65
2021/07/06 04:52:37;;;;;;;2.13;1.27;;;21.20;65.50;;;;;;5054598;28;20194;-65
2021/07/06 04:55:04;;;;;;;1.60;1.50;;;21.20;65.80;;;;;;5054103;28;20515;-65
2021/07/06 04:57:31;;;;;;;2.38;1.40;;;21.20;66.00;;;;;;5054474;28;20175;-65
2021/07/06 04:59:56;;;;;;;2.17;1.55;;;21.20;66.10;;;;;;5053997;28;20210;-65
2021/07/06 05:02:22;;;;;;;1.55;1.35;;;21.20;66.00;;;;;;5054463;28;20533;-65
2021/07/06 05:04:47;;;;;;;2.95;1.55;;;21.20;66.10;;;;;;5053996;28;20179;-66
2021/07/06 05:07:13;;;;;;;3.08;1.42;;;21.20;66.20;;;;;;5053874;28;20167;-66
2021/07/06 05:09:39;;;;;;;2.25;1.30;;;21.20;66.40;;;;;;5053061;28;20213;-65
2021/07/06 05:12:04;;;;;;;1.90;1.40;;;21.20;66.40;;;;;;5053321;28;20693;-64
2021/07/06 05:14:30;;;;;;;1.42;1.33;;;21.20;66.20;;;;;;5053266;28;20594;-65
2021/07/06 05:16:55;;;;;;;1.83;1.40;;;21.20;65.80;;;;;;5054107;28;20175;-66
2021/07/06 05:19:21;;;;;;;1.70;1.60;;;21.20;66.00;;;;;;5053707;28;20222;-66
2021/07/06 05:21:46;;;;;;;1.85;1.70;;;21.20;66.20;;;;;;5053243;28;20612;-66
2021/07/06 05:24:12;;;;;;;1.85;1.40;;;21.20;66.20;;;;;;5054173;28;20171;-65
2021/07/06 05:26:38;;;;;;;2.28;1.55;;;21.20;65.70;;;;;;5053626;28;20660;-65
2021/07/06 05:29:03;;;;;;;1.55;1.33;;;21.10;66.20;;;;;;5053242;28;20179;-64
2021/07/06 05:31:29;;;;;;;1.33;1.10;;;21.20;65.70;;;;;;5054037;28;20190;-65
2021/07/06 05:33:55;;;;;;;1.60;1.50;;;21.20;67.00;;;;;;5053950;28;20614;-65
2021/07/06 05:36:20;;;;;;;2.75;1.52;;;21.20;66.20;;;;;;5053298;28;20183;-65
2021/07/06 05:38:46;;;;;;;1.70;1.60;;;21.20;66.30;;;;;;5053682;28;20198;-66
2021/07/06 05:41:12;;;;;;;2.22;1.30;;;21.20;65.90;;;;;;5053817;28;20251;-66
2021/07/06 05:43:38;;;;;;;3.50;1.77;;;21.20;66.30;;;;;;5052690;28;20174;-66
2021/07/06 05:46:04;;;;;;;1.50;1.40;;;21.20;66.30;;;;;;5053603;28;20183;-66
2021/07/06 05:48:29;;;;;;;2.33;1.50;;;21.10;65.80;;;;;;5053305;28;20668;-65
2021/07/06 05:50:55;;;;;;;1.30;1.20;;;21.20;65.90;;;;;;5052931;28;20177;-66
2021/07/06 05:53:20;;;;;;;1.67;1.58;;;21.20;66.00;;;;;;5053646;28;20167;-66
2021/07/06 05:55:46;;;;;;;1.83;1.42;;;21.20;66.00;;;;;;5053368;28;20179;-65
2021/07/06 05:58:12;;;;;;;1.85;1.33;;;21.20;66.10;;;;;;5052887;28;20202;-66
2021/07/06 06:00:40;;;;;;;3.20;1.48;;;21.20;66.30;;;;;;5053141;28;20226;-66
2021/07/06 06:03:10;;;;;;;1.55;1.45;;;21.20;66.20;;;;;;5052587;28;20310;-67
2021/07/06 06:05:39;;;;;;;1.25;1.23;;;21.20;66.30;;;;;;5052923;28;20701;-66
2021/07/06 06:08:05;;;;;;;1.52;1.40;;;21.10;66.00;;;;;;5053430;28;20182;-66
2021/07/06 06:10:31;;;;;;;1.98;1.30;;;21.10;66.00;;;;;;5052148;28;20179;-66
2021/07/06 06:12:56;;;;;;;1.33;1.23;;;21.20;66.40;;;;;;5053354;28;20226;-66
2021/07/06 06:15:22;;;;;;;1.85;1.63;;;21.10;66.30;;;;;;5053088;28;20179;-66
2021/07/06 06:17:47;;;;;;;1.60;1.30;;;21.20;65.90;;;;;;5052342;28;20260;-67
2021/07/06 06:20:14;;;;;;;1.90;1.30;;;21.20;66.20;;;;;;5052797;28;20323;-67
2021/07/06 06:22:39;;;;;;;2.75;1.40;;;21.20;66.00;;;;;;5053044;28;20637;-67
2021/07/06 06:25:05;;;;;;;1.38;1.27;;;21.20;66.00;;;;;;5052302;28;20265;-65
2021/07/06 06:27:31;;;;;;;1.20;1.10;;;21.20;66.20;;;;;;5052694;28;20254;-65
2021/07/06 06:29:57;;;;;;;1.48;1.35;;;21.20;66.10;;;;;;5052855;28;20211;-64
2021/07/06 06:32:23;;;;;;;1.73;1.60;;;21.20;66.20;;;;;;5052075;28;20178;-65
2021/07/06 06:34:50;;;;;;;1.50;1.15;;;21.20;66.40;;;;;;5052795;28;20187;-65
2021/07/06 06:37:15;;;;;;;1.40;1.30;;;21.20;66.50;;;;;;5053066;28;20559;-66
2021/07/06 06:39:41;;;;;;;1.55;1.45;;;21.20;66.10;;;;;;5051947;28;20206;-66
2021/07/06 06:42:07;;;;;;;1.75;1.42;;;21.20;66.00;;;;;;5052911;28;20171;-66
2021/07/06 06:44:32;;;;;;;1.77;1.30;;;21.20;66.50;;;;;;5052389;28;20633;-66
2021/07/06 06:46:58;;;;;;;1.33;1.25;;;21.20;66.40;;;;;;5052293;28;20236;-67
2021/07/06 06:49:24;;;;;;;1.83;1.15;;;21.20;66.20;;;;;;5052878;28;20187;-66
2021/07/06 06:51:49;;;;;;;2.15;1.10;;;21.20;65.90;;;;;;5052581;28;20277;-67
2021/07/06 06:54:15;;;;;;;1.30;1.20;;;21.20;66.00;;;;;;5051952;28;20270;-66
2021/07/06 06:56:42;;;;;;;2.30;1.40;;;21.20;65.90;;;;;;5052416;28;20171;-66
2021/07/06 06:59:08;;;;;;;5.20;1.58;;;21.20;65.90;;;;;;5052530;28;20175;-66
2021/07/06 07:01:34;;;;;;;1.52;1.10;;;21.20;65.80;;;;;;5051731;28;20235;-66
2021/07/06 07:04:00;;;;;;;1.58;1.33;;;21.20;65.70;;;;;;5053757;28;20262;-66
2021/07/06 07:06:26;;;;;;;1.30;1.20;;;21.20;65.70;;;;;;5056007;28;20324;-67
2021/07/06 07:08:51;;;;;;;2.63;1.30;;;21.20;65.70;;;;;;5056629;28;20651;-66
2021/07/06 07:11:17;;;;;;;1.83;1.20;;;21.20;65.70;;;;;;5056602;28;20641;-66
2021/07/06 07:13:42;;;;;;;3.25;1.30;;;21.30;66.20;;;;;;5055582;28;20266;-66
2021/07/06 07:16:08;;;;;;;1.23;1.10;;;21.20;65.80;;;;;;5056524;28;20265;-66
2021/07/06 07:18:34;;;;;;;1.40;1.30;;;21.30;65.70;;;;;;5056104;28;20691;-66
2021/07/06 07:20:59;;;;;;;2.00;1.23;;;21.30;65.70;;;;;;5055838;28;20214;-67
2021/07/06 07:23:25;;;;;;;1.40;1.30;;;21.30;66.20;;;;;;5056442;28;20225;-67
2021/07/06 07:25:50;;;;;;;1.77;1.20;;;21.40;66.00;;;;;;5056009;28;20190;-67
2021/07/06 07:28:16;;;;;;;2.03;1.45;;;21.40;65.90;;;;;;5055492;28;20179;-67
2021/07/06 07:30:41;;;;;;;2.40;1.35;;;21.40;65.80;;;;;;5055869;28;20261;-66
2021/07/06 07:33:07;;;;;;;2.63;1.20;;;21.40;65.90;;;;;;5056319;28;20205;-75
2021/07/06 07:35:32;;;;;;;1.70;1.55;;;21.40;65.80;;;;;;5055394;28;20171;-74
2021/07/06 07:37:58;;;;;;;1.88;1.50;;;21.40;65.90;;;;;;5056311;28;20203;-67
2021/07/06 07:40:23;;;;;;;1.25;1.15;;;21.40;66.00;;;;;;5056147;28;20215;-67
2021/07/06 07:42:49;;;;;;;2.58;1.50;;;21.40;65.90;;;;;;5054537;28;20546;-65
2021/07/06 07:45:14;;;;;;;2.83;1.48;;;21.40;65.90;;;;;;5055554;28;20265;-67
2021/07/06 07:47:40;;;;;;;2.97;1.50;;;21.40;66.30;;;;;;5055649;28;20225;-67
2021/07/06 07:50:06;;;;;;;3.30;1.40;;;21.50;66.30;;;;;;5063842;28;20175;-67
2021/07/06 07:52:33;;;;;;;2.28;1.58;;;21.40;66.20;;;;;;5058500;28;20170;-67
2021/07/06 07:55:02;;;;;;;2.95;1.40;;;21.40;66.00;;;;;;5075850;28;20166;-66
2021/07/06 07:57:28;;;;;;;2.03;1.30;;;21.40;66.00;;;;;;5066298;28;20180;-67
2021/07/06 07:59:54;;;;;;;1.95;1.63;;;21.50;66.00;;;;;;5055541;28;20213;-67
2021/07/06 08:02:20;;;;;;;3.60;1.50;;;21.40;66.00;;;;;;5055892;28;20175;-67
2021/07/06 08:04:45;;;;;;;1.42;1.27;;;21.50;65.90;;;;;;5054601;28;20182;-67
2021/07/06 08:07:11;;;;;;;3.25;1.35;;;21.50;65.90;;;;;;5055405;28;20317;-66
2021/07/06 08:09:37;;;;;;;2.35;1.58;;;21.50;65.80;;;;;;5054682;28;20187;-66
2021/07/06 08:12:03;;;;;;;2.70;1.42;;;21.50;65.80;;;;;;5055222;28;20179;-66
2021/07/06 08:14:29;;;;;;;2.70;1.52;;;21.50;65.80;;;;;;5055548;28;20203;-66
2021/07/06 08:16:54;;;;;;;1.52;1.42;;;21.50;65.80;;;;;;5053515;28;20257;-67
2021/07/06 08:19:20;;;;;;;3.38;1.30;;;21.50;65.80;;;;;;5055265;28;20281;-67
2021/07/06 08:21:46;;;;;;;1.35;1.23;;;21.50;65.80;;;;;;5054841;28;20269;-66
2021/07/06 08:24:11;;;;;;;2.15;1.20;;;21.60;65.80;;;;;;5072035;28;20194;-66
2021/07/06 08:26:37;;;;;;;2.97;1.45;;;21.50;65.70;;;;;;5070689;28;20222;-66
2021/07/06 08:29:04;;;;;;;2.78;1.52;;;21.60;65.80;;;;;;5055150;28;20171;-65
2021/07/06 08:31:29;;;;;;;2.38;1.52;;;21.50;65.80;;;;;;5054369;28;20183;-66
2021/07/06 08:33:55;;;;;;;1.95;1.52;;;21.50;65.70;;;;;;5054931;28;20648;-66
2021/07/06 08:36:20;;;;;;;2.88;1.40;;;21.50;65.70;;;;;;5055108;28;20167;-66
2021/07/06 08:38:46;;;;;;;2.58;1.38;;;21.60;65.70;;;;;;5054001;28;20171;-66
2021/07/06 08:41:12;;;;;;;2.20;1.42;;;21.60;66.80;;;;;;5054724;28;20244;-67
2021/07/06 08:43:37;;;;;;;3.15;1.45;;;21.60;65.60;;;;;;5054815;28;20259;-67
2021/07/06 08:46:03;;;;;;;1.60;1.50;;;21.60;65.90;;;;;;5053971;28;20182;-67
2021/07/06 08:48:31;;;;;;;2.88;1.95;;;21.60;65.70;;;;;;5054708;28;20565;-70
2021/07/06 08:50:56;;;;;;;2.47;1.25;;;21.70;65.60;;;;;;5054762;28;20207;-71
2021/07/06 08:53:22;;;;;;;5.82;1.85;;;21.80;65.40;;;;;;5052840;28;20680;-68
2021/07/06 08:55:47;;;;;;;1.80;1.52;;;21.80;65.30;;;;;;5054347;28;20240;-68
2021/07/06 08:58:16;;;;;;;2.10;1.35;;;21.80;65.40;;;;;;5071338;28;20178;-68
2021/07/06 09:00:42;;;;;;;4.32;1.20;;;21.80;65.40;;;;;;5072453;28;20213;-69
2021/07/06 09:03:09;;;;;;;2.28;1.40;;;21.90;65.30;;;;;;5074610;28;20166;-69
2021/07/06 09:05:35;;;;;;;3.22;1.60;;;21.90;65.20;;;;;;5074354;28;20232;-69
2021/07/06 09:08:01;;;;;;;1.83;1.15;;;21.90;65.10;;;;;;5073884;28;20171;-68
2021/07/06 09:10:37;;;;;;;1.80;1.30;;;21.90;65.20;;;;;;5074150;28;20232;-67
2021/07/06 09:13:16;;;;;;;3.05;1.60;;;21.90;65.20;;;;;;5073773;28;20185;-68
2021/07/06 09:15:42;;;;;;;1.63;1.15;;;22.00;65.20;;;;;;5072764;28;20688;-69
2021/07/06 09:18:17;;;;;;;2.97;1.25;;;22.00;65.10;;;;;;5056349;28;20174;-68
2021/07/06 09:20:44;;;;;;;2.03;1.60;;;22.00;65.20;;;;;;5073118;28;20679;-68
2021/07/06 09:23:37;;;;;;;3.63;1.40;;;22.00;65.30;;;;;;5074158;28;20206;-69
2021/07/06 09:26:22;;;;;;;2.50;1.13;;;22.00;65.40;;;;;;5074352;28;20579;-67
2021/07/06 09:28:52;;;;;;;2.08;1.35;;;22.10;65.20;;;;;;5073047;28;20633;-67
2021/07/06 09:31:21;;;;;;;3.42;1.45;;;22.10;65.00;;;;;;5073776;28;20189;-68
2021/07/06 09:33:50;;;;;;;2.63;1.17;;;22.10;64.90;;;;;;5073457;28;20651;-67
2021/07/06 09:36:26;;;;;;;2.55;1.13;;;22.20;64.90;;;;;;5073187;28;20243;-68
2021/07/06 09:39:27;;;;;;;3.03;1.15;;;22.20;64.80;;;;;;5073640;28;20170;-68
2021/07/06 09:42:00;;;;;;;2.03;1.40;;;22.20;64.80;;;;;;5050581;28;20190;-68
2021/07/06 09:44:28;;;;;;;1.58;1.40;;;22.30;64.70;;;;;;5070398;28;20629;-68
2021/07/06 09:46:57;;;;;;;1.25;1.20;;;22.30;64.70;;;;;;5073439;28;20188;-67
2021/07/06 09:49:24;;;;;;;1.70;1.10;;;22.30;64.80;;;;;;5072943;28;20166;-67
2021/07/06 09:51:50;;;;;;;4.28;1.38;;;22.30;64.70;;;;;;5073379;28;20185;-67
2021/07/06 09:54:36;;;;;;;1.58;1.02;;;22.30;64.70;;;;;;5073553;28;20532;-67
2021/07/06 09:57:11;;;;;;;2.08;1.20;;;22.40;64.70;;;;;;5065855;28;20202;-67
2021/07/06 09:59:36;;;;;;;1.55;0.93;;;22.40;64.50;;;;;;5053024;28;20166;-67
2021/07/06 10:02:08;;;;;;;2.67;0.95;;;22.50;64.40;;;;;;5052184;28;20182;-66
2021/07/06 10:04:35;;;;;;;2.13;1.30;;;22.50;64.30;;;;;;5052955;28;20198;-67
2021/07/06 10:07:01;;;;;;;2.40;1.20;;;22.50;64.50;;;;;;5052428;28;20543;-64
2021/07/06 10:09:26;;;;;;;3.08;1.10;;;22.50;64.50;;;;;;5052748;28;20175;-67
2021/07/06 10:11:53;;;;;;;2.97;1.08;;;22.60;64.40;;;;;;5052744;28;20172;-66
2021/07/06 10:14:19;;;;;;;1.73;1.02;;;22.50;64.70;;;;;;5053352;28;20171;-67
2021/07/06 10:16:45;;;;;;;2.38;1.08;;;22.50;64.70;;;;;;5050770;28;20175;-68
2021/07/06 10:19:13;;;;;;;2.22;1.17;;;22.40;64.80;;;;;;5051609;28;20716;-68
2021/07/06 10:21:39;;;;;;;1.20;1.10;;;22.30;64.90;;;;;;5052765;28;20302;-68
2021/07/06 10:24:05;;;;;;;1.73;1.02;;;22.30;64.90;;;;;;5052479;28;20317;-68
2021/07/06 10:26:31;;;;;;;2.42;1.05;;;22.20;64.90;;;;;;5051647;28;20190;-67
2021/07/06 10:28:56;;;;;;;1.55;0.98;;;22.30;65.00;;;;;;5053060;28;20198;-67
2021/07/06 10:31:22;;;;;;;1.20;1.10;;;22.30;65.00;;;;;;5052114;28;20175;-67
2021/07/06 10:33:48;;;;;;;1.48;1.15;;;22.30;64.90;;;;;;5052635;28;20692;-67
2021/07/06 10:36:16;;;;;;;1.27;1.17;;;22.30;64.60;;;;;;5051947;28;20266;-67
2021/07/06 10:38:45;;;;;;;3.25;1.15;;;22.30;64.70;;;;;;5051288;28;20178;-68
2021/07/06 10:41:21;;;;;;;1.50;1.00;;;22.40;64.50;;;;;;5052755;28;20219;-68
2021/07/06 10:43:50;;;;;;;1.10;0.77;;;22.40;64.30;;;;;;5052433;28;20224;-68
2021/07/06 10:46:22;;;;;;;2.05;0.90;;;22.40;64.20;;;;;;5051909;28;20183;-68
2021/07/06 10:49:07;;;;;;;2.63;1.08;;;22.50;64.10;;;;;;5052637;28;20233;-68
2021/07/06 10:51:36;;;;;;;1.33;0.98;;;22.40;64.10;;;;;;5051881;28;20175;-67
2021/07/06 10:54:26;;;;;;;1.20;0.93;;;22.40;64.30;;;;;;5052543;28;20206;-66
2021/07/06 10:56:52;;;;;;;1.88;1.00;;;22.40;64.40;;;;;;5054875;28;20232;-67
2021/07/06 10:59:30;;;;;;;1.48;1.08;;;22.40;64.50;;;;;;5072087;28;20186;-66
2021/07/06 11:02:02;;;;;;;1.73;0.90;;;22.40;64.60;;;;;;5072651;28;20535;-67
2021/07/06 11:04:37;;;;;;;2.97;1.20;;;22.40;64.50;;;;;;5072555;28;20720;-67
2021/07/06 11:07:03;;;;;;;1.23;0.88;;;22.40;65.40;;;;;;5071895;28;20174;-67
2021/07/06 11:09:34;;;;;;;1.83;1.00;;;22.40;64.70;;;;;;5072920;28;20170;-66
2021/07/06 11:12:21;;;;;;;1.67;0.90;;;22.40;64.80;;;;;;5072840;28;20178;-68
2021/07/06 11:14:48;;;;;;;1.45;1.08;;;22.40;64.30;;;;;;5071836;28;20224;-69
2021/07/06 11:17:16;;;;;;;2.15;1.05;;;22.50;64.00;;;;;;5072446;28;20235;-70
2021/07/06 11:19:43;;;;;;;1.83;1.00;;;22.60;64.00;;;;;;5055670;28;20223;-66
2021/07/06 11:22:09;;;;;;;2.13;1.10;;;22.60;63.90;;;;;;5051328;28;20225;-66
2021/07/06 11:24:39;;;;;;;1.40;0.93;;;22.60;63.70;;;;;;5050656;28;20171;-67
2021/07/06 11:27:05;;;;;;;3.10;1.00;;;22.70;63.60;;;;;;5050377;28;20175;-66
2021/07/06 11:29:37;;;;;;;1.70;0.95;;;22.70;63.50;;;;;;5051240;28;20206;-66
2021/07/06 11:32:10;;;;;;;1.85;1.10;;;22.70;63.50;;;;;;5052583;28;20320;-66
2021/07/06 11:34:36;;;;;;;2.72;0.98;;;22.70;63.40;;;;;;5051390;28;20240;-67
2021/07/06 11:37:14;;;;;;;2.08;1.05;;;22.70;63.70;;;;;;5051667;28;20180;-67
2021/07/06 11:39:40;;;;;;;1.73;1.05;;;22.60;63.60;;;;;;5051150;28;20587;-68
2021/07/06 11:42:05;;;;;;;1.88;0.88;;;22.70;63.40;;;;;;5050796;28;20175;-69
2021/07/06 11:44:31;;;;;;;1.58;1.10;;;22.80;63.30;;;;;;5051729;28;20282;-69
2021/07/06 11:47:13;;;;;;;4.25;0.88;;;22.80;63.10;;;;;;5052398;28;20645;-69
2021/07/06 11:49:42;;;;;;;1.63;0.82;;;22.70;63.10;;;;;;5051731;28;20175;-68
2021/07/06 11:52:09;;;;;;;1.75;1.00;;;22.80;62.90;;;;;;5055734;28;20202;-69
2021/07/06 11:54:34;;;;;;;3.45;1.25;;;22.70;63.10;;;;;;5055316;28;20254;-68
2021/07/06 11:57:06;;;;;;;2.03;0.90;;;22.70;63.10;;;;;;5061838;28;20265;-69
2021/07/06 11:59:32;;;;;;;3.38;0.90;;;22.70;63.00;;;;;;5075219;28;20526;-69
2021/07/06 12:02:12;;;;;;;4.22;1.10;;;22.70;62.80;;;;;;5075151;28;20183;-69
2021/07/06 12:04:38;;;;;;;1.83;0.85;;;22.70;62.70;;;;;;5075512;28;20181;-69
2021/07/06 12:07:14;;;;;;;2.03;0.88;;;22.60;62.70;;;;;;5074408;28;20171;-68
2021/07/06 12:09:40;;;;;;;1.25;1.10;;;22.60;62.60;;;;;;5074478;28;20279;-67
2021/07/06 12:12:15;;;;;;;4.00;1.23;;;22.70;62.20;;;;;;5075695;28;20693;-67
2021/07/06 12:14:48;;;;;;;4.68;1.05;;;22.80;62.00;;;;;;5075470;28;20166;-68
2021/07/06 12:17:23;;;;;;;1.73;0.98;;;22.80;61.90;;;;;;5074730;28;20182;-70
2021/07/06 12:19:48;;;;;;;2.20;1.20;;;22.70;61.80;;;;;;5074855;28;20221;-69
2021/07/06 12:22:18;;;;;;;2.53;0.95;;;22.70;61.70;;;;;;5075105;28;20655;-68
2021/07/06 12:24:43;;;;;;;1.80;0.88;;;22.80;61.80;;;;;;5074435;28;20271;-68
2021/07/06 12:27:12;;;;;;;2.78;1.17;;;22.70;61.70;;;;;;5075396;28;20204;-67
2021/07/06 12:29:38;;;;;;;1.70;0.93;;;22.70;61.50;;;;;;5073778;28;20175;-67
2021/07/06 12:32:12;;;;;;;6.50;1.40;;;22.70;61.50;;;;;;5074379;28;20227;-68
2021/07/06 12:34:46;;;;;;;2.95;1.30;;;22.80;61.30;;;;;;5074774;28;20248;-68
2021/07/06 12:37:17;;;;;;;3.95;1.55;;;22.80;61.10;;;;;;5074587;28;20177;-69
2021/07/06 12:39:44;;;;;;;1.83;0.90;;;22.90;60.70;;;;;;5074767;28;20170;-68
2021/07/06 12:42:15;;;;;;;1.65;0.90;;;22.90;60.50;;;;;;5075168;28;20190;-69
2021/07/06 12:44:46;;;;;;;2.95;0.93;;;22.90;60.50;;;;;;5073824;28;20206;-69
2021/07/06 12:47:31;;;;;;;2.45;1.00;;;23.00;60.40;;;;;;5074718;28;20182;-69